createdAt,value
2023-02-20T00:00:57.562Z,97113.47
2023-02-20T00:03:28.326Z,97119.44
2023-02-20T00:05:59.320Z,97113.75
2023-02-20T00:08:29.969Z,97119.94
2023-02-20T00:11:00.564Z,97115.25
2023-02-20T00:13:31.146Z,97125.94
2023-02-20T00:16:04.697Z,97119.03
2023-02-20T00:18:35.303Z,97111.22
2023-02-20T00:21:05.898Z,97117.63
2023-02-20T00:23:37.510Z,97115.06
2023-02-20T00:26:12.972Z,97120.03
2023-02-20T00:28:46.789Z,97089.44
2023-02-20T00:31:21.495Z,97114.81
2023-02-20T00:33:52.085Z,97115.56
2023-02-20T00:36:23.598Z,97109.56
2023-02-20T00:38:54.577Z,97109.69
2023-02-20T00:41:27.352Z,97105.66
2023-02-20T00:43:57.909Z,97100.66
2023-02-20T00:46:33.315Z,97109.94
2023-02-20T00:49:03.994Z,97112.22
2023-02-20T00:51:49.535Z,97103.06
2023-02-20T00:54:20.675Z,97098.56
2023-02-20T00:56:51.200Z,97102.69
2023-02-20T00:59:21.829Z,97096.19
2023-02-20T01:01:55.087Z,97107.00
2023-02-20T01:04:25.807Z,97107.00
2023-02-20T01:06:56.783Z,97112.00
2023-02-20T01:09:28.369Z,97093.34
2023-02-20T01:11:59.228Z,97105.66
2023-02-20T01:14:29.867Z,97105.03
2023-02-20T01:17:03.037Z,97111.16
2023-02-20T01:19:33.659Z,97109.34
2023-02-20T01:22:06.670Z,97111.34
2023-02-20T01:24:37.199Z,97111.34
2023-02-20T01:27:07.937Z,97101.06
2023-02-20T01:29:40.215Z,97089.38
2023-02-20T01:32:14.964Z,97089.56
2023-02-20T01:34:45.426Z,97095.06
2023-02-20T01:37:18.262Z,97096.06
2023-02-20T01:39:50.811Z,97104.06
2023-02-20T01:42:25.495Z,97105.06
2023-02-20T01:44:59.145Z,97108.75
2023-02-20T01:47:32.259Z,97104.41
2023-02-20T01:50:07.387Z,97095.78
2023-02-20T01:52:40.992Z,97100.09
2023-02-20T01:55:16.675Z,97114.41
2023-02-20T01:57:53.941Z,97112.78
2023-02-20T02:00:27.361Z,97095.13
2023-02-20T02:03:08.652Z,97102.63
2023-02-20T02:05:42.558Z,97106.13
2023-02-20T02:08:15.483Z,97094.81
2023-02-20T02:10:53.308Z,97094.19
2023-02-20T02:13:24.592Z,97098.84
2023-02-20T02:16:10.552Z,97099.84
2023-02-20T02:19:05.028Z,97098.38
2023-02-20T02:22:19.985Z,97089.53
2023-02-20T02:25:16.515Z,97090.25
2023-02-20T02:28:19.900Z,97082.94
2023-02-20T02:31:22.167Z,97076.78
2023-02-20T02:34:26.341Z,97080.63
2023-02-20T02:37:12.443Z,97080.16
2023-02-20T02:39:50.350Z,97083.97
2023-02-20T02:42:27.538Z,97093.63
2023-02-20T02:45:01.295Z,97101.97
2023-02-20T02:47:40.789Z,97108.13
2023-02-20T02:50:16.075Z,97109.31
2023-02-20T02:52:51.653Z,97085.75
2023-02-20T02:55:24.553Z,97097.34
2023-02-20T02:57:55.377Z,97107.34
2023-02-20T03:00:30.405Z,97097.88
2023-02-20T03:03:07.906Z,97117.69
2023-02-20T03:05:46.638Z,97098.41
2023-02-20T03:08:33.851Z,97105.72
2023-02-20T03:11:08.803Z,97110.41
2023-02-20T03:13:56.823Z,97109.72
2023-02-20T03:16:38.538Z,97104.75
2023-02-20T03:19:14.091Z,97105.78
2023-02-20T03:21:48.789Z,97115.25
2023-02-20T03:24:27.212Z,97121.75
2023-02-20T03:27:00.555Z,97123.28
2023-02-20T03:29:37.622Z,97128.41
2023-02-20T03:32:25.624Z,97120.78
2023-02-20T03:35:10.856Z,97117.81
2023-02-20T03:37:56.128Z,97118.16
2023-02-20T03:40:43.635Z,97132.47
2023-02-20T03:43:26.656Z,97118.47
2023-02-20T03:46:04.461Z,97122.31
2023-02-20T03:48:41.380Z,97116.34
2023-02-20T03:51:13.861Z,97132.63
2023-02-20T03:53:52.666Z,97123.16
2023-02-20T03:56:30.201Z,97142.09
2023-02-20T03:59:09.463Z,97159.06
2023-02-20T04:01:42.674Z,97148.28
2023-02-20T04:04:17.646Z,97145.78
2023-02-20T04:06:53.812Z,97141.63
2023-02-20T04:09:30.197Z,97141.00
2023-02-20T04:12:08.620Z,97137.81
2023-02-20T04:14:40.518Z,97148.81
2023-02-20T04:17:17.626Z,97154.13
2023-02-20T04:19:48.269Z,97150.78
2023-02-20T04:22:23.653Z,97154.47
2023-02-20T04:24:56.373Z,97149.47
2023-02-20T04:27:31.670Z,97145.31
2023-02-20T04:30:04.326Z,97158.78
2023-02-20T04:32:35.412Z,97160.94
2023-02-20T04:35:06.054Z,97140.69
2023-02-20T04:37:36.634Z,97136.53
2023-02-20T04:40:10.407Z,97141.19
2023-02-20T04:42:43.577Z,97144.19
2023-02-20T04:45:14.129Z,97147.81
2023-02-20T04:47:44.817Z,97154.81
2023-02-20T04:50:22.232Z,97168.09
2023-02-20T04:52:54.999Z,97191.84
2023-02-20T04:55:26.047Z,97196.66
2023-02-20T04:58:01.494Z,97196.31
2023-02-20T05:00:38.748Z,97194.97
2023-02-20T05:03:09.421Z,97194.31
2023-02-20T05:05:40.055Z,97193.97
2023-02-20T05:08:11.643Z,97210.75
2023-02-20T05:10:42.169Z,97212.56
2023-02-20T05:13:15.349Z,97229.50
2023-02-20T05:15:45.796Z,97233.81
2023-02-20T05:18:16.428Z,97235.50
2023-02-20T05:20:59.432Z,97231.16
2023-02-20T05:23:29.897Z,97229.66
2023-02-20T05:26:00.417Z,97240.97
2023-02-20T05:28:33.647Z,97248.94
2023-02-20T05:31:04.289Z,97256.06
2023-02-20T05:33:35.212Z,97254.41
2023-02-20T05:36:05.837Z,97263.38
2023-02-20T05:38:36.299Z,97282.63
2023-02-20T05:41:06.934Z,97281.81
2023-02-20T05:43:40.026Z,97287.59
2023-02-20T05:46:10.745Z,97309.19
2023-02-20T05:48:41.460Z,97312.69
2023-02-20T05:51:12.329Z,97327.94
2023-02-20T05:53:42.878Z,97333.94
2023-02-20T05:56:13.783Z,97335.78
2023-02-20T05:58:48.861Z,97345.59
2023-02-20T06:01:23.498Z,97349.22
2023-02-20T06:03:54.079Z,97355.38
2023-02-20T06:06:25.050Z,97371.97
2023-02-20T06:08:55.666Z,97364.00
2023-02-20T06:11:26.355Z,97383.28
2023-02-20T06:13:59.702Z,97385.78
2023-02-20T06:16:32.002Z,97394.94
2023-02-20T06:19:03.403Z,97393.78
2023-02-20T06:21:36.116Z,97390.00
2023-02-20T06:24:06.856Z,97399.34
2023-02-20T06:26:43.304Z,97390.22
2023-02-20T06:29:19.361Z,97398.06
2023-02-20T06:31:50.364Z,97406.06
2023-02-20T06:34:23.801Z,97396.75
2023-02-20T06:36:54.779Z,97393.13
2023-02-20T06:39:25.343Z,97407.41
2023-02-20T06:41:56.003Z,97402.44
2023-02-20T06:44:29.156Z,97400.63
2023-02-20T06:46:59.806Z,97401.25
2023-02-20T06:49:30.418Z,97401.38
2023-02-20T06:52:04.365Z,97397.81
2023-02-20T06:54:35.137Z,97387.25
2023-02-20T06:57:06.068Z,97396.97
2023-02-20T06:59:41.820Z,97391.31
2023-02-20T07:02:15.026Z,97393.81
2023-02-20T07:04:45.901Z,97404.50
2023-02-20T07:07:16.496Z,97405.84
2023-02-20T07:09:47.050Z,97410.56
2023-02-20T07:12:17.683Z,97418.09
2023-02-20T07:14:50.850Z,97420.44
2023-02-20T07:17:21.472Z,97420.47
2023-02-20T07:19:52.251Z,97436.09
2023-02-20T07:22:22.865Z,97447.41
2023-02-20T07:24:54.603Z,97453.53
2023-02-20T07:27:25.949Z,97455.97
2023-02-20T07:29:59.136Z,97456.44
2023-02-20T07:32:29.790Z,97448.03
2023-02-20T07:35:05.343Z,97452.53
2023-02-20T07:37:38.035Z,97455.16
2023-02-20T07:40:09.517Z,97457.13
2023-02-20T07:42:40.040Z,97455.75
2023-02-20T07:45:20.164Z,97458.31
2023-02-20T07:47:51.005Z,97459.13
2023-02-20T07:50:21.911Z,97461.22
2023-02-20T07:52:52.480Z,97447.75
2023-02-20T07:55:23.180Z,97464.47
2023-02-20T07:57:58.560Z,97461.34
2023-02-20T08:00:31.930Z,97473.38
2023-02-20T08:03:02.551Z,97469.88
2023-02-20T08:05:48.277Z,97478.78
2023-02-20T08:08:19.530Z,97477.34
2023-02-20T08:10:57.013Z,97453.75
2023-02-20T08:13:31.251Z,97469.25
2023-02-20T08:16:04.552Z,97478.75
2023-02-20T08:18:35.282Z,97469.84
2023-02-20T08:21:06.102Z,97470.25
2023-02-20T08:23:36.786Z,97469.84
2023-02-20T08:26:08.013Z,97473.38
2023-02-20T08:28:38.648Z,97466.75
2023-02-20T08:31:19.923Z,97459.50
2023-02-20T08:34:00.500Z,97472.34
2023-02-20T08:36:33.692Z,97459.06
2023-02-20T08:39:04.543Z,97453.91
2023-02-20T08:41:35.056Z,97452.03
2023-02-20T08:44:05.723Z,97459.88
2023-02-20T08:46:38.934Z,97454.69
2023-02-20T08:49:09.479Z,97454.53
2023-02-20T08:51:40.035Z,97442.16
2023-02-20T08:54:10.901Z,97435.75
2023-02-20T08:56:41.755Z,97436.19
2023-02-20T08:59:12.404Z,97431.75
2023-02-20T09:01:47.318Z,97428.59
2023-02-20T09:04:20.138Z,97431.00
2023-02-20T09:06:50.747Z,97429.91
2023-02-20T09:09:21.367Z,97431.50
2023-02-20T09:11:52.069Z,97443.03
2023-02-20T09:14:22.733Z,97453.47
2023-02-20T09:16:57.996Z,97456.03
2023-02-20T09:19:28.285Z,97450.94
2023-02-20T09:21:58.752Z,97447.56
2023-02-20T09:24:32.302Z,97433.50
2023-02-20T09:27:03.086Z,97428.91
2023-02-20T09:29:33.849Z,97435.41
2023-02-20T09:32:08.073Z,97444.88
2023-02-20T09:34:38.948Z,97448.97
2023-02-20T09:37:09.857Z,97449.16
2023-02-20T09:39:40.485Z,97449.78
2023-02-20T09:42:25.197Z,97468.78
2023-02-20T09:45:05.825Z,97467.63
2023-02-20T09:47:55.287Z,97450.53
2023-02-20T09:50:34.457Z,97471.91
2023-02-20T09:53:09.996Z,97479.03
2023-02-20T09:55:44.221Z,97476.34
2023-02-20T09:58:24.149Z,97479.41
2023-02-20T10:00:55.536Z,97467.34
2023-02-20T10:03:37.663Z,97476.19
2023-02-20T10:06:17.104Z,97473.81
2023-02-20T10:08:47.979Z,97469.63
2023-02-20T10:11:30.902Z,97473.88
2023-02-20T10:14:18.682Z,97475.34
2023-02-20T10:16:55.146Z,97477.41
2023-02-20T10:19:37.131Z,97472.78
2023-02-20T10:22:16.104Z,97466.19
2023-02-20T10:24:57.433Z,97465.28
2023-02-20T10:27:34.466Z,97477.63
2023-02-20T10:30:07.109Z,97472.66
2023-02-20T10:32:46.166Z,97473.06
2023-02-20T10:35:23.788Z,97494.22
2023-02-20T10:37:58.647Z,97483.03
2023-02-20T10:40:34.776Z,97484.06
2023-02-20T10:43:12.093Z,97494.78
2023-02-20T10:45:50.449Z,97480.75
2023-02-20T10:48:21.228Z,97476.09
2023-02-20T10:51:05.379Z,97471.06
2023-02-20T10:53:42.565Z,97455.72
2023-02-20T10:56:16.642Z,97465.66
2023-02-20T10:58:52.653Z,97466.56
2023-02-20T11:01:26.447Z,97453.44
2023-02-20T11:04:04.194Z,97440.22
2023-02-20T11:06:41.074Z,97442.91
2023-02-20T11:09:13.219Z,97448.03
2023-02-20T11:11:45.589Z,97457.47
2023-02-20T11:14:21.614Z,97446.34
2023-02-20T11:16:59.553Z,97449.03
2023-02-20T11:19:34.843Z,97455.03
2023-02-20T11:22:08.080Z,97452.97
2023-02-20T11:24:40.037Z,97443.47
2023-02-20T11:27:14.885Z,97456.31
2023-02-20T11:29:51.506Z,97457.34
2023-02-20T11:32:31.919Z,97460.41
2023-02-20T11:35:30.273Z,97455.91
2023-02-20T11:38:26.946Z,97455.41
2023-02-20T11:41:11.097Z,97448.28
2023-02-20T11:44:00.129Z,97453.66
2023-02-20T11:46:31.342Z,97456.13
2023-02-20T11:49:05.687Z,97462.50
2023-02-20T11:51:39.053Z,97456.06
2023-02-20T11:54:18.452Z,97461.06
2023-02-20T11:57:02.339Z,97457.78
2023-02-20T11:59:36.765Z,97457.88
2023-02-20T12:02:29.590Z,97445.78
2023-02-20T12:05:13.348Z,97448.75
2023-02-20T12:07:46.690Z,97444.25
2023-02-20T12:10:41.926Z,97439.75
2023-02-20T12:13:17.235Z,97446.19
2023-02-20T12:15:49.152Z,97425.09
2023-02-20T12:18:39.976Z,97415.53
2023-02-20T12:21:25.292Z,97437.59
2023-02-20T12:24:13.224Z,97435.34
2023-02-20T12:26:56.142Z,97448.34
2023-02-20T12:29:39.422Z,97441.97
2023-02-20T12:32:26.049Z,97428.94
2023-02-20T12:35:20.139Z,97438.66
2023-02-20T12:37:59.673Z,97432.72
2023-02-20T12:40:43.787Z,97432.28
2023-02-20T12:43:33.966Z,97427.91
2023-02-20T12:46:13.507Z,97430.69
2023-02-20T12:48:55.374Z,97435.53
2023-02-20T12:51:37.995Z,97440.72
2023-02-20T12:54:24.344Z,97435.97
2023-02-20T12:57:06.413Z,97432.25
2023-02-20T12:59:48.921Z,97432.88
2023-02-20T13:02:39.370Z,97437.84
2023-02-20T13:05:15.832Z,97447.56
2023-02-20T13:07:54.289Z,97424.38
2023-02-20T13:10:27.837Z,97443.00
2023-02-20T13:12:58.941Z,97437.94
2023-02-20T13:15:41.520Z,97443.94
2023-02-20T13:18:23.041Z,97440.25
2023-02-20T13:20:58.232Z,97438.84
2023-02-20T13:23:32.738Z,97444.28
2023-02-20T13:26:03.240Z,97448.06
2023-02-20T13:28:46.164Z,97424.09
2023-02-20T13:31:22.822Z,97430.81
2023-02-20T13:34:05.477Z,97426.94
2023-02-20T13:36:46.532Z,97432.84
2023-02-20T13:39:38.058Z,97437.56
2023-02-20T13:42:28.022Z,97445.38
2023-02-20T13:44:59.941Z,97447.88
2023-02-20T13:47:42.429Z,97445.84
2023-02-20T13:50:33.193Z,97444.56
2023-02-20T13:53:06.577Z,97442.81
2023-02-20T13:55:37.985Z,97453.06
2023-02-20T13:58:17.621Z,97443.00
2023-02-20T14:00:52.167Z,97458.50
2023-02-20T14:03:28.473Z,97456.19
2023-02-20T14:06:07.634Z,97462.91
2023-02-20T14:08:39.267Z,97460.41
2023-02-20T14:11:12.833Z,97459.94
2023-02-20T14:13:46.898Z,97449.59
2023-02-20T14:16:31.998Z,97452.63
2023-02-20T14:19:09.046Z,97451.97
2023-02-20T14:21:41.538Z,97458.63
2023-02-20T14:24:21.350Z,97457.31
2023-02-20T14:26:56.180Z,97466.81
2023-02-20T14:29:28.572Z,97466.81
2023-02-20T14:32:00.855Z,97463.78
2023-02-20T14:34:45.881Z,97452.28
2023-02-20T14:37:20.055Z,97457.91
2023-02-20T14:39:57.616Z,97437.44
2023-02-20T14:42:28.983Z,97457.91
2023-02-20T14:45:04.069Z,97460.28
2023-02-20T14:47:35.892Z,97459.31
2023-02-20T14:50:22.617Z,97470.72
2023-02-20T14:53:04.715Z,97468.78
2023-02-20T14:55:35.375Z,97475.47
2023-02-20T14:58:09.765Z,97476.16
2023-02-20T15:00:42.255Z,97468.25
2023-02-20T15:03:30.329Z,97478.59
2023-02-20T15:06:09.255Z,97475.78
2023-02-20T15:08:40.452Z,97476.31
2023-02-20T15:11:13.783Z,97482.97
2023-02-20T15:13:47.586Z,97478.00
2023-02-20T15:16:23.853Z,97477.34
2023-02-20T15:18:55.000Z,97480.34
2023-02-20T15:21:40.849Z,97473.69
2023-02-20T15:24:32.267Z,97470.72
2023-02-20T15:27:14.086Z,97475.75
2023-02-20T15:29:45.616Z,97485.75
2023-02-20T15:32:23.077Z,97479.13
2023-02-20T15:34:59.519Z,97476.63
2023-02-20T15:37:39.226Z,97487.28
2023-02-20T15:40:25.602Z,97480.09
2023-02-20T15:43:18.733Z,97454.16
2023-02-20T15:45:51.195Z,97485.13
2023-02-20T15:48:22.723Z,97488.63
2023-02-20T15:50:53.922Z,97485.47
2023-02-20T15:53:29.344Z,97500.16
2023-02-20T15:56:02.124Z,97504.81
2023-02-20T15:58:35.813Z,97490.50
2023-02-20T16:01:07.059Z,97505.34
2023-02-20T16:03:50.491Z,97495.19
2023-02-20T16:06:22.892Z,97504.34
2023-02-20T16:08:56.737Z,97499.34
2023-02-20T16:11:31.255Z,97497.22
2023-02-20T16:14:05.027Z,97499.22
2023-02-20T16:16:37.868Z,97492.56
2023-02-20T16:19:16.734Z,97478.28
2023-02-20T16:21:58.653Z,97499.06
2023-02-20T16:24:38.142Z,97504.84
2023-02-20T16:27:23.109Z,97498.03
2023-02-20T16:29:55.384Z,97498.25
2023-02-20T16:32:27.977Z,97494.19
2023-02-20T16:35:00.489Z,97489.63
2023-02-20T16:37:32.761Z,97497.53
2023-02-20T16:40:06.140Z,97497.91
2023-02-20T16:42:38.956Z,97496.06
2023-02-20T16:45:14.766Z,97501.91
2023-02-20T16:47:46.057Z,97501.94
2023-02-20T16:50:20.782Z,97507.66
2023-02-20T16:52:54.028Z,97515.88
2023-02-20T16:55:30.597Z,97510.31
2023-02-20T16:58:01.470Z,97514.50
2023-02-20T17:00:34.928Z,97519.91
2023-02-20T17:03:07.096Z,97520.31
2023-02-20T17:05:39.769Z,97516.56
2023-02-20T17:08:10.545Z,97524.66
2023-02-20T17:10:43.857Z,97527.41
2023-02-20T17:13:14.497Z,97526.06
2023-02-20T17:15:47.849Z,97522.59
2023-02-20T17:18:18.608Z,97520.25
2023-02-20T17:20:50.187Z,97508.25
2023-02-20T17:23:20.757Z,97520.91
2023-02-20T17:25:54.135Z,97517.59
2023-02-20T17:28:24.734Z,97518.91
2023-02-20T17:30:55.999Z,97508.78
2023-02-20T17:33:27.010Z,97521.72
2023-02-20T17:35:57.655Z,97528.66
2023-02-20T17:38:28.350Z,97524.78
2023-02-20T17:41:01.715Z,97524.28
2023-02-20T17:43:33.607Z,97527.09
2023-02-20T17:46:05.953Z,97532.66
2023-02-20T17:48:36.655Z,97535.09
2023-02-20T17:51:07.587Z,97529.19
2023-02-20T17:53:38.153Z,97529.13
2023-02-20T17:56:11.773Z,97525.22
2023-02-20T17:58:42.765Z,97521.97
2023-02-20T18:01:14.028Z,97513.84
2023-02-20T18:03:44.681Z,97515.66
2023-02-20T18:06:15.638Z,97513.97
2023-02-20T18:08:46.337Z,97526.81
2023-02-20T18:11:19.848Z,97520.63
2023-02-20T18:13:50.462Z,97524.72
2023-02-20T18:16:21.258Z,97525.56
2023-02-20T18:18:52.023Z,97526.16
2023-02-20T18:21:24.540Z,97519.38
2023-02-20T18:23:55.640Z,97519.34
2023-02-20T18:26:28.955Z,97515.06
2023-02-20T18:29:01.686Z,97512.13
2023-02-20T18:31:32.505Z,97507.06
2023-02-20T18:34:03.876Z,97507.22
2023-02-20T18:36:34.447Z,97509.25
2023-02-20T18:39:05.464Z,97511.69
2023-02-20T18:41:39.029Z,97512.25
2023-02-20T18:44:10.742Z,97514.00
2023-02-20T18:46:42.398Z,97522.59
2023-02-20T18:49:12.938Z,97527.75
2023-02-20T18:51:45.587Z,97525.00
2023-02-20T18:54:20.308Z,97524.28
2023-02-20T18:56:55.395Z,97523.06
2023-02-20T18:59:27.417Z,97518.03
2023-02-20T19:01:58.985Z,97503.28
2023-02-20T19:04:31.558Z,97511.25
2023-02-20T19:07:04.322Z,97511.41
2023-02-20T19:09:38.281Z,97506.66
2023-02-20T19:12:12.282Z,97513.91
2023-02-20T19:14:42.802Z,97503.75
2023-02-20T19:17:15.645Z,97502.69
2023-02-20T19:19:46.273Z,97517.22
2023-02-20T19:22:16.953Z,97505.88
2023-02-20T19:24:47.548Z,97509.53
2023-02-20T19:27:20.846Z,97513.19
2023-02-20T19:29:51.654Z,97506.41
2023-02-20T19:32:22.695Z,97504.09
2023-02-20T19:34:53.608Z,97496.59
2023-02-20T19:37:24.880Z,97486.31
2023-02-20T19:39:55.651Z,97476.19
2023-02-20T19:42:28.945Z,97491.59
2023-02-20T19:44:59.528Z,97471.59
2023-02-20T19:47:30.136Z,97484.75
2023-02-20T19:50:00.804Z,97478.25
2023-02-20T19:52:31.498Z,97486.56
2023-02-20T19:55:02.145Z,97482.38
2023-02-20T19:57:36.636Z,97479.63
2023-02-20T20:00:10.802Z,97477.69
2023-02-20T20:02:43.231Z,97480.91
2023-02-20T20:05:14.027Z,97444.19
2023-02-20T20:07:44.758Z,97435.84
2023-02-20T20:10:15.667Z,97441.06
2023-02-20T20:12:51.712Z,97434.63
2023-02-20T20:15:24.133Z,97425.47
2023-02-20T20:17:57.539Z,97436.47
2023-02-20T20:20:28.905Z,97437.50
2023-02-20T20:23:01.597Z,97427.50
2023-02-20T20:25:32.283Z,97423.28
2023-02-20T20:28:07.675Z,97430.06
2023-02-20T20:30:40.338Z,97425.09
2023-02-20T20:33:12.037Z,97420.25
2023-02-20T20:35:42.613Z,97421.88
2023-02-20T20:38:13.243Z,97409.66
2023-02-20T20:40:43.878Z,97410.81
2023-02-20T20:43:17.348Z,97414.38
2023-02-20T20:45:47.945Z,97420.75
2023-02-20T20:48:18.631Z,97421.47
2023-02-20T20:50:49.701Z,97421.78
2023-02-20T20:53:20.368Z,97419.59
2023-02-20T20:55:50.917Z,97414.94
2023-02-20T20:58:24.151Z,97404.13
2023-02-20T21:00:54.652Z,97415.53
2023-02-20T21:03:25.360Z,97416.09
2023-02-20T21:05:56.148Z,97397.75
2023-02-20T21:08:26.773Z,97406.31
2023-02-20T21:10:57.360Z,97393.81
2023-02-20T21:13:30.561Z,97390.56
2023-02-20T21:16:01.252Z,97391.06
2023-02-20T21:18:32.069Z,97388.31
2023-02-20T21:21:02.594Z,97384.06
2023-02-20T21:23:33.295Z,97395.91
2023-02-20T21:26:03.954Z,97383.53
2023-02-20T21:28:37.267Z,97375.44
2023-02-20T21:31:08.598Z,97353.53
2023-02-20T21:33:39.250Z,97350.81
2023-02-20T21:36:10.593Z,97339.47
2023-02-20T21:38:41.614Z,97346.88
2023-02-20T21:41:32.208Z,97342.13
2023-02-20T21:44:17.730Z,97354.34
2023-02-20T21:46:48.179Z,97339.53
2023-02-20T21:49:18.804Z,97334.38
2023-02-20T21:51:49.470Z,97326.97
2023-02-20T21:54:21.423Z,97324.66
2023-02-20T21:56:51.986Z,97320.56
2023-02-20T21:59:22.639Z,97328.53
2023-02-20T22:01:51.420Z,97325.31
2023-02-20T22:04:19.940Z,97320.38
2023-02-20T22:07:03.323Z,97316.75
2023-02-20T22:09:46.095Z,97318.75
2023-02-20T22:12:28.915Z,97314.09
2023-02-20T22:15:14.266Z,97316.50
2023-02-20T22:17:57.106Z,97313.34
2023-02-20T22:20:39.925Z,97314.63
2023-02-20T22:23:22.768Z,97312.91
2023-02-20T22:26:05.542Z,97306.75
2023-02-20T22:28:48.349Z,97295.84
2023-02-20T22:31:33.782Z,97283.56
2023-02-20T22:34:16.813Z,97296.13
2023-02-20T22:36:59.596Z,97297.06
2023-02-20T22:39:42.391Z,97300.38
2023-02-20T22:42:34.401Z,97295.00
2023-02-20T22:45:17.735Z,97293.97
2023-02-20T22:48:03.362Z,97288.50
2023-02-20T22:50:46.152Z,97294.09
2023-02-20T22:53:29.043Z,97283.91
2023-02-20T22:56:11.776Z,97276.22
2023-02-20T22:58:54.505Z,97282.38
2023-02-20T23:01:37.353Z,97282.63
2023-02-20T23:04:22.763Z,97280.66
2023-02-20T23:07:05.845Z,97272.44
2023-02-20T23:09:48.667Z,97261.16
2023-02-20T23:12:31.443Z,97259.94
2023-02-20T23:15:14.513Z,97255.09
2023-02-20T23:17:57.889Z,97256.03
2023-02-20T23:20:43.459Z,97253.84
2023-02-20T23:23:27.649Z,97247.50
2023-02-20T23:26:10.467Z,97245.72
2023-02-20T23:28:53.788Z,97234.34
2023-02-20T23:31:47.216Z,97231.56
2023-02-20T23:34:30.129Z,97236.88
2023-02-20T23:37:15.656Z,97233.22
2023-02-20T23:39:59.428Z,97225.97
2023-02-20T23:42:42.253Z,97228.94
2023-02-20T23:45:25.587Z,97225.84
2023-02-20T23:48:08.710Z,97214.00
2023-02-20T23:50:51.747Z,97206.41
2023-02-20T23:53:37.183Z,97215.81
2023-02-20T23:56:20.403Z,97196.06
2023-02-20T23:59:03.146Z,97192.53
